^^
Meteo Knjazevac Station Historical Data
Daily Summary for September 22, 2022 Units:  Both    English   Metric
Daily Weekly Monthly Yearly Custom
  High: Low: Average:
Temperature: 52.3 °F /  11.3 °C 31.1 °F /  -0.5 °C 42.4 °F /  5.8 °C
Dew Point: 46.3 °F /  7.9 °C 30.9 °F /  -0.6 °C 41.2 °F /  5.1 °C
Humidity: 99% 74.4% 96%
Wind Speed: 10.1mph /  16.3km/h - 3.9mph /  6.3km/h
Wind Gust: 13mph /  20.9km/h - -
Wind- - SSW
Pressure: 29.88 in /  1011.7 hPa 29.66 in /  1004.3 hPa -
Precipitation: 0.09 in /  2.29 mm    
Historical Graphs
 
 
Tabular Data for September 22, 2022
Time Temperature Dew Point Pressure Wind Wind Speed Wind Gust Humidity Rainfall Rate (Hourly) solar Conditions
00:04 40.8 °F /  4.9 °C 40.3 °F /  4.6 °C 29.88in /  1011.7hPa SSW 4.1mph /  6.6km/h 5mph /  8km/h 98% 0.00in /  0mm 0 W/m2
00:09 40.8 °F /  4.9 °C 40.3 °F /  4.6 °C 29.88in /  1011.7hPa SSE 3.4mph /  5.5km/h 6mph /  9.7km/h 98% 0.00in /  0mm 0 W/m2
00:14 40.8 °F /  4.9 °C 40.3 °F /  4.6 °C 29.88in /  1011.7hPa SSE 3.7mph /  6km/h 4mph /  6.4km/h 98% 0.00in /  0mm 0 W/m2
00:19 40.7 °F /  4.8 °C 40.2 °F /  4.6 °C 29.88in /  1011.7hPa South 3.7mph /  6km/h 5mph /  8km/h 98% 0.00in /  0mm 0 W/m2
00:24 40.5 °F /  4.7 °C 40 °F /  4.4 °C 29.88in /  1011.7hPa South 3.7mph /  6km/h 5mph /  8km/h 98% 0.00in /  0mm 0 W/m2
00:29 40.5 °F /  4.7 °C 39.9 °F /  4.4 °C 29.88in /  1011.7hPa SSE 4.3mph /  6.9km/h 5mph /  8km/h 98% 0.00in /  0mm 0 W/m2
00:34 40.5 °F /  4.7 °C 39.9 °F /  4.4 °C 29.88in /  1011.7hPa SSE 2.8mph /  4.5km/h 6mph /  9.7km/h 98% 0.00in /  0mm 0 W/m2
00:39 40.3 °F /  4.6 °C 39.8 °F /  4.3 °C 29.88in /  1011.7hPa South 2.5mph /  4km/h 4mph /  6.4km/h 98% 0.00in /  0mm 0 W/m2
00:44 40 °F /  4.4 °C 39.5 °F /  4.2 °C 29.88in /  1011.7hPa SSW 3.8mph /  6.1km/h 3mph /  4.8km/h 98% 0.00in /  0mm 0 W/m2
00:49 39.7 °F /  4.3 °C 39.3 °F /  4.1 °C 29.88in /  1011.7hPa South 4.3mph /  6.9km/h 5mph /  8km/h 98.4% 0.00in /  0mm 0 W/m2
00:54 39.6 °F /  4.2 °C 39.3 °F /  4.1 °C 29.88in /  1011.7hPa SSE 3.9mph /  6.3km/h 6mph /  9.7km/h 99% 0.00in /  0mm 0 W/m2
00:59 39.4 °F /  4.1 °C 39.1 °F /  3.9 °C 29.88in /  1011.7hPa SSE 3.7mph /  6km/h 5mph /  8km/h 99% 0.00in /  0mm 0 W/m2
01:04 39.4 °F /  4.1 °C 39.1 °F /  3.9 °C 29.88in /  1011.7hPa SSE 3.7mph /  6km/h 4mph /  6.4km/h 99% 0.00in /  0mm 0 W/m2
01:09 39.5 °F /  4.2 °C 39.2 °F /  4 °C 29.88in /  1011.7hPa SSE 3.5mph /  5.6km/h 5mph /  8km/h 99% 0.00in /  0mm 0 W/m2
01:14 39.6 °F /  4.2 °C 39.4 °F /  4.1 °C 29.88in /  1011.7hPa South 3.4mph /  5.5km/h 5mph /  8km/h 99% 0.00in /  0mm 0 W/m2
01:19 39.7 °F /  4.3 °C 39.4 °F /  4.1 °C 29.88in /  1011.7hPa South 4.3mph /  6.9km/h 4mph /  6.4km/h 99% 0.00in /  0mm 0 W/m2
01:24 39.7 °F /  4.3 °C 39.5 °F /  4.2 °C 29.88in /  1011.7hPa South 4.4mph /  7.1km/h 5mph /  8km/h 99% 0.00in /  0mm 0 W/m2
01:29 39.7 °F /  4.3 °C 39.5 °F /  4.2 °C 29.88in /  1011.7hPa South 3.7mph /  6km/h 6mph /  9.7km/h 99% 0.00in /  0mm 0 W/m2
01:34 39.7 °F /  4.3 °C 39.5 °F /  4.2 °C 29.88in /  1011.7hPa SSW 3mph /  4.8km/h 4mph /  6.4km/h 99% 0.00in /  0mm 0 W/m2
01:39 39.7 °F /  4.3 °C 39.4 °F /  4.1 °C 29.88in /  1011.7hPa SW 3.2mph /  5.1km/h 4mph /  6.4km/h 99% 0.00in /  0mm 0 W/m2
01:44 39.7 °F /  4.3 °C 39.5 °F /  4.2 °C 29.88in /  1011.7hPa SSW 3.3mph /  5.3km/h 4mph /  6.4km/h 99% 0.00in /  0mm 0 W/m2
01:49 39.8 °F /  4.3 °C 39.6 °F /  4.2 °C 29.88in /  1011.7hPa SSE 3.5mph /  5.6km/h 4mph /  6.4km/h 99% 0.00in /  0mm 0 W/m2
01:54 39.7 °F /  4.3 °C 39.5 °F /  4.2 °C 29.88in /  1011.7hPa SSE 3.2mph /  5.1km/h 5mph /  8km/h 99% 0.00in /  0mm 0 W/m2
01:59 39.6 °F /  4.2 °C 39.4 °F /  4.1 °C 29.88in /  1011.7hPa SSW 2.8mph /  4.5km/h 5mph /  8km/h 99% 0.00in /  0mm 0 W/m2
02:04 39.3 °F /  4.1 °C 39 °F /  3.9 °C 29.88in /  1011.7hPa SSW 3.5mph /  5.6km/h 3mph /  4.8km/h 99% 0.00in /  0mm 0 W/m2
02:09 39.1 °F /  3.9 °C 38.8 °F /  3.8 °C 29.88in /  1011.7hPa SSW 3.5mph /  5.6km/h 5mph /  8km/h 99% 0.00in /  0mm 0 W/m2
02:14 39 °F /  3.9 °C 38.8 °F /  3.8 °C 29.88in /  1011.7hPa SSE 3.8mph /  6.1km/h 5mph /  8km/h 99% 0.00in /  0mm 0 W/m2
02:19 39 °F /  3.9 °C 38.8 °F /  3.8 °C 29.88in /  1011.7hPa SSE 3.4mph /  5.5km/h 5mph /  8km/h 99% 0.00in /  0mm 0 W/m2
02:24 39 °F /  3.9 °C 38.8 °F /  3.8 °C 29.88in /  1011.7hPa SSE 4.1mph /  6.6km/h 4mph /  6.4km/h 99% 0.00in /  0mm 0 W/m2
02:29 38.8 °F /  3.8 °C 38.6 °F /  3.7 °C 29.88in /  1011.7hPa SE 5.9mph /  9.5km/h 6mph /  9.7km/h 99% 0.00in /  0mm 0 W/m2
02:34 38.8 °F /  3.8 °C 38.5 °F /  3.6 °C 29.88in /  1011.7hPa SSE 5mph /  8km/h 7mph /  11.3km/h 99% 0.00in /  0mm 0 W/m2
02:39 38.7 °F /  3.7 °C 38.4 °F /  3.6 °C 29.88in /  1011.7hPa SSE 4.4mph /  7.1km/h 6mph /  9.7km/h 99% 0.00in /  0mm 0 W/m2
02:44 38.7 °F /  3.7 °C 38.5 °F /  3.6 °C 29.88in /  1011.7hPa South 3.9mph /  6.3km/h 5mph /  8km/h 99% 0.00in /  0mm 0 W/m2
02:49 38.6 °F /  3.7 °C 38.3 °F /  3.5 °C 29.87in /  1011.4hPa SW 3.7mph /  6km/h 5mph /  8km/h 99% 0.00in /  0mm 0 W/m2
02:54 38.5 °F /  3.6 °C 38.2 °F /  3.4 °C 29.87in /  1011.4hPa South 4.5mph /  7.2km/h 6mph /  9.7km/h 99% 0.00in /  0mm 0 W/m2
02:59 38.5 °F /  3.6 °C 38.2 °F /  3.4 °C 29.87in /  1011.4hPa SSE 2.5mph /  4km/h 5mph /  8km/h 99% 0.00in /  0mm 0 W/m2
03:04 38.4 °F /  3.6 °C 38.1 °F /  3.4 °C 29.88in /  1011.7hPa SSW 2.2mph /  3.5km/h 3mph /  4.8km/h 99% 0.00in /  0mm 0 W/m2
03:09 38.2 °F /  3.4 °C 38 °F /  3.3 °C 29.88in /  1011.7hPa West 2.2mph /  3.5km/h 2mph /  3.2km/h 99% 0.00in /  0mm 0 W/m2
03:14 37.9 °F /  3.3 °C 37.7 °F /  3.2 °C 29.88in /  1011.7hPa WNW 1.8mph /  2.9km/h 2mph /  3.2km/h 99% 0.00in /  0mm 0 W/m2
03:19 37.7 °F /  3.2 °C 37.4 °F /  3 °C 29.87in /  1011.4hPa WNW 1.9mph /  3.1km/h 2mph /  3.2km/h 99% 0.00in /  0mm 0 W/m2
03:24 37.6 °F /  3.1 °C 37.3 °F /  2.9 °C 29.87in /  1011.4hPa Calm   2mph /  3.2km/h 99% 0.00in /  0mm 0 W/m2
03:29 37.4 °F /  3 °C 37.1 °F /  2.8 °C 29.87in /  1011.4hPa ESE 1.6mph /  2.6km/h 2mph /  3.2km/h 99% 0.00in /  0mm 0 W/m2
03:34 37.2 °F /  2.9 °C 37 °F /  2.8 °C 29.87in /  1011.4hPa East 2.2mph /  3.5km/h 3mph /  4.8km/h 99% 0.00in /  0mm 0 W/m2
03:39 36.8 °F /  2.7 °C 36.5 °F /  2.5 °C 29.86in /  1011.1hPa WNW 2mph /  3.2km/h 2mph /  3.2km/h 99% 0.00in /  0mm 0 W/m2
03:44 36.5 °F /  2.5 °C 36.2 °F /  2.3 °C 29.86in /  1011.1hPa NNW 0.5mph /  0.8km/h 2mph /  3.2km/h 99% 0.00in /  0mm 0 W/m2
03:49 36.2 °F /  2.3 °C 36 °F /  2.2 °C 29.86in /  1011.1hPa NNW 2.6mph /  4.2km/h 2.5mph /  4km/h 99% 0.00in /  0mm 0 W/m2
03:54 36 °F /  2.2 °C 35.8 °F /  2.1 °C 29.86in /  1011.1hPa WNW 2.8mph /  4.5km/h 3mph /  4.8km/h 99% 0.00in /  0mm 0 W/m2
03:59 35.7 °F /  2.1 °C 35.4 °F /  1.9 °C 29.86in /  1011.1hPa West 2.1mph /  3.4km/h 4mph /  6.4km/h 99% 0.00in /  0mm 0 W/m2
04:04 35.4 °F /  1.9 °C 35.2 °F /  1.8 °C 29.86in /  1011.1hPa WNW 2.1mph /  3.4km/h 3mph /  4.8km/h 99% 0.00in /  0mm 0 W/m2
04:09 35.1 °F /  1.7 °C 34.8 °F /  1.6 °C 29.86in /  1011.1hPa WNW 2.3mph /  3.7km/h 2.2mph /  3.5km/h 99% 0.00in /  0mm 0 W/m2
04:14 34.7 °F /  1.5 °C 34.4 °F /  1.3 °C 29.86in /  1011.1hPa WNW 3.1mph /  5km/h 3mph /  4.8km/h 99% 0.00in /  0mm 0 W/m2
04:19 34.4 °F /  1.3 °C 34.2 °F /  1.2 °C 29.86in /  1011.1hPa WNW 2.5mph /  4km/h 3mph /  4.8km/h 99% 0.00in /  0mm 0 W/m2
04:24 34.1 °F /  1.2 °C 33.8 °F /  1 °C 29.86in /  1011.1hPa WNW 3mph /  4.8km/h 3.1mph /  5km/h 99% 0.00in /  0mm 0 W/m2
04:29 33.7 °F /  0.9 °C 33.4 °F /  0.8 °C 29.86in /  1011.1hPa West 3.2mph /  5.1km/h 4mph /  6.4km/h 99% 0.00in /  0mm 0 W/m2
04:34 33.4 °F /  0.8 °C 33.2 °F /  0.7 °C 29.86in /  1011.1hPa West 5.3mph /  8.5km/h 5mph /  8km/h 99% 0.00in /  0mm 0 W/m2
04:39 33.4 °F /  0.8 °C 33.2 °F /  0.7 °C 29.86in /  1011.1hPa West 6mph /  9.7km/h 7mph /  11.3km/h 99% 0.00in /  0mm 0 W/m2
04:44 33.4 °F /  0.8 °C 33.2 °F /  0.7 °C 29.86in /  1011.1hPa West 6.3mph /  10.1km/h 7mph /  11.3km/h 99% 0.00in /  0mm 0 W/m2
04:49 33.4 °F /  0.8 °C 33.1 °F /  0.6 °C 29.86in /  1011.1hPa West 4mph /  6.4km/h 7mph /  11.3km/h 99% 0.00in /  0mm 0 W/m2
04:54 33.3 °F /  0.7 °C 33 °F /  0.6 °C 29.86in /  1011.1hPa West 3.9mph /  6.3km/h 5mph /  8km/h 99% 0.00in /  0mm 0 W/m2
04:59 33.2 °F /  0.7 °C 32.9 °F /  0.5 °C 29.86in /  1011.1hPa West 3.9mph /  6.3km/h 6mph /  9.7km/h 99% 0.00in /  0mm 0 W/m2
05:04 33 °F /  0.6 °C 32.7 °F /  0.4 °C 29.86in /  1011.1hPa West 3.6mph /  5.8km/h 4mph /  6.4km/h 99% 0.00in /  0mm 0 W/m2
05:09 32.8 °F /  0.4 °C 32.6 °F /  0.3 °C 29.86in /  1011.1hPa West 4.9mph /  7.9km/h 6mph /  9.7km/h 99% 0.00in /  0mm 0 W/m2
05:14 32.6 °F /  0.3 °C 32.4 °F /  0.2 °C 29.86in /  1011.1hPa West 4mph /  6.4km/h 6mph /  9.7km/h 99% 0.00in /  0mm 0 W/m2
05:19 32.5 °F /  0.3 °C 32.3 °F /  0.2 °C 29.86in /  1011.1hPa West 2.4mph /  3.9km/h 5mph /  8km/h 99% 0.00in /  0mm 0 W/m2
05:24 32.4 °F /  0.2 °C 32.1 °F /  0.1 °C 29.86in /  1011.1hPa West 2.9mph /  4.7km/h 3mph /  4.8km/h 99% 0.00in /  0mm 0 W/m2
05:29 32.3 °F /  0.2 °C 32 °F /  0 °C 29.87in /  1011.4hPa West 3mph /  4.8km/h 3mph /  4.8km/h 99% 0.00in /  0mm 0 W/m2
05:34 32.2 °F /  0.1 °C 31.9 °F /  -0.1 °C 29.87in /  1011.4hPa West 3.2mph /  5.1km/h 4mph /  6.4km/h 99% 0.00in /  0mm 0 W/m2
05:39 32 °F /  0 °C 31.8 °F /  -0.1 °C 29.87in /  1011.4hPa West 2.9mph /  4.7km/h 4mph /  6.4km/h 99% 0.00in /  0mm 0 W/m2
05:44 31.9 °F /  -0.1 °C 31.7 °F /  -0.2 °C 29.87in /  1011.4hPa WSW 2.3mph /  3.7km/h 3mph /  4.8km/h 99% 0.00in /  0mm 0 W/m2
05:49 31.8 °F /  -0.1 °C 31.6 °F /  -0.2 °C 29.87in /  1011.4hPa West 2.7mph /  4.3km/h 3mph /  4.8km/h 99% 0.00in /  0mm 0 W/m2
05:54 31.6 °F /  -0.2 °C 31.4 °F /  -0.3 °C 29.87in /  1011.4hPa WNW 3mph /  4.8km/h 3mph /  4.8km/h 99% 0.00in /  0mm 0 W/m2
05:59 31.6 °F /  -0.2 °C 31.4 °F /  -0.3 °C 29.87in /  1011.4hPa West 2.2mph /  3.5km/h 3mph /  4.8km/h 99% 0.00in /  0mm 0 W/m2
06:04 31.5 °F /  -0.3 °C 31.2 °F /  -0.4 °C 29.86in /  1011.1hPa West 2.7mph /  4.3km/h 2.5mph /  4km/h 99% 0.00in /  0mm 0 W/m2
06:09 31.5 °F /  -0.3 °C 31.2 °F /  -0.4 °C 29.86in /  1011.1hPa WNW 2.4mph /  3.9km/h 3mph /  4.8km/h 99% 0.00in /  0mm 0 W/m2
06:14 31.4 °F /  -0.3 °C 31.1 °F /  -0.5 °C 29.86in /  1011.1hPa WNW 3mph /  4.8km/h 3.4mph /  5.5km/h 99% 0.00in /  0mm 0 W/m2
06:19 31.3 °F /  -0.4 °C 31 °F /  -0.6 °C 29.86in /  1011.1hPa West 3.7mph /  6km/h 4mph /  6.4km/h 99% 0.00in /  0mm 0 W/m2
06:24 31.3 °F /  -0.4 °C 31 °F /  -0.6 °C 29.86in /  1011.1hPa West 4.3mph /  6.9km/h 5mph /  8km/h 99% 0.00in /  0mm 1 W/m2
06:29 31.3 °F /  -0.4 °C 31 °F /  -0.6 °C 29.86in /  1011.1hPa West 4.9mph /  7.9km/h 6mph /  9.7km/h 99% 0.00in /  0mm 3 W/m2
06:34 31.3 °F /  -0.4 °C 31 °F /  -0.6 °C 29.86in /  1011.1hPa West 4.8mph /  7.7km/h 6mph /  9.7km/h 99% 0.00in /  0mm 6 W/m2
06:39 31.3 °F /  -0.4 °C 31 °F /  -0.6 °C 29.86in /  1011.1hPa West 3.7mph /  6km/h 5mph /  8km/h 99% 0.00in /  0mm 9 W/m2
06:44 31.3 °F /  -0.4 °C 31 °F /  -0.6 °C 29.86in /  1011.1hPa West 3.2mph /  5.1km/h 4mph /  6.4km/h 99% 0.00in /  0mm 13 W/m2
06:49 31.1 °F /  -0.5 °C 30.9 °F /  -0.6 °C 29.86in /  1011.1hPa West 3.9mph /  6.3km/h 4mph /  6.4km/h 99% 0.00in /  0mm 18 W/m2
06:54 31.1 °F /  -0.5 °C 30.9 °F /  -0.6 °C 29.86in /  1011.1hPa West 3.5mph /  5.6km/h 5mph /  8km/h 99% 0.00in /  0mm 25 W/m2
06:59 31.1 °F /  -0.5 °C 30.9 °F /  -0.6 °C 29.86in /  1011.1hPa West 3.4mph /  5.5km/h 4mph /  6.4km/h 99% 0.00in /  0mm 36 W/m2
07:04 31.1 °F /  -0.5 °C 30.9 °F /  -0.6 °C 29.86in /  1011.1hPa West 3.8mph /  6.1km/h 4mph /  6.4km/h 99% 0.00in /  0mm 44 W/m2
07:09 31.2 °F /  -0.4 °C 31 °F /  -0.6 °C 29.86in /  1011.1hPa West 3.7mph /  6km/h 6mph /  9.7km/h 99% 0.00in /  0mm 56 W/m2
07:14 31.3 °F /  -0.4 °C 31 °F /  -0.6 °C 29.86in /  1011.1hPa West 3.3mph /  5.3km/h 4mph /  6.4km/h 99% 0.00in /  0mm 73 W/m2
07:19 31.3 °F /  -0.4 °C 31 °F /  -0.6 °C 29.86in /  1011.1hPa West 4mph /  6.4km/h 4mph /  6.4km/h 99% 0.00in /  0mm 84 W/m2
07:24 31.4 °F /  -0.3 °C 31.2 °F /  -0.4 °C 29.86in /  1011.1hPa West 6.4mph /  10.3km/h 5.4mph /  8.7km/h 99% 0.00in /  0mm 96 W/m2
07:29 32 °F /  0 °C 31.7 °F /  -0.2 °C 29.86in /  1011.1hPa WSW 6.7mph /  10.8km/h 8mph /  12.9km/h 99% 0.00in /  0mm 108 W/m2
07:34 32.5 °F /  0.3 °C 32.3 °F /  0.2 °C 29.86in /  1011.1hPa WSW 5.6mph /  9km/h 8mph /  12.9km/h 99% 0.00in /  0mm 125 W/m2
07:39 33.2 °F /  0.7 °C 32.9 °F /  0.5 °C 29.86in /  1011.1hPa West 4.8mph /  7.7km/h 6mph /  9.7km/h 99% 0.00in /  0mm 132 W/m2
07:44 33.6 °F /  0.9 °C 33.4 °F /  0.8 °C 29.86in /  1011.1hPa West 4.3mph /  6.9km/h 6mph /  9.7km/h 99% 0.00in /  0mm 148 W/m2
07:49 34.5 °F /  1.4 °C 34.2 °F /  1.2 °C 29.86in /  1011.1hPa West 4.5mph /  7.2km/h 5mph /  8km/h 99% 0.00in /  0mm 162 W/m2
07:54 35 °F /  1.7 °C 34.7 °F /  1.5 °C 29.86in /  1011.1hPa West 5.6mph /  9km/h 5.1mph /  8.2km/h 99% 0.00in /  0mm 191 W/m2
07:59 35.2 °F /  1.8 °C 35 °F /  1.7 °C 29.86in /  1011.1hPa West 7mph /  11.3km/h 7mph /  11.3km/h 99% 0.00in /  0mm 212 W/m2
08:04 35.3 °F /  1.8 °C 35.1 °F /  1.7 °C 29.86in /  1011.1hPa West 6mph /  9.7km/h 8mph /  12.9km/h 99% 0.00in /  0mm 245 W/m2
08:09 35.7 °F /  2.1 °C 35.4 °F /  1.9 °C 29.86in /  1011.1hPa West 5.5mph /  8.9km/h 7mph /  11.3km/h 99% 0.00in /  0mm 245 W/m2
08:14 36.3 °F /  2.4 °C 36.1 °F /  2.3 °C 29.86in /  1011.1hPa West 3.4mph /  5.5km/h 7mph /  11.3km/h 99% 0.00in /  0mm 242 W/m2
08:19 37.3 °F /  2.9 °C 37 °F /  2.8 °C 29.86in /  1011.1hPa WSW 3.4mph /  5.5km/h 4mph /  6.4km/h 99% 0.00in /  0mm 241 W/m2
08:24 37.8 °F /  3.2 °C 37.5 °F /  3.1 °C 29.86in /  1011.1hPa WSW 3.4mph /  5.5km/h 4mph /  6.4km/h 99% 0.00in /  0mm 232 W/m2
08:29 38 °F /  3.3 °C 37.8 °F /  3.2 °C 29.86in /  1011.1hPa West 4mph /  6.4km/h 5mph /  8km/h 99% 0.00in /  0mm 238 W/m2
08:34 38.5 °F /  3.6 °C 38.3 °F /  3.5 °C 29.85in /  1010.7hPa WSW 3.6mph /  5.8km/h 5mph /  8km/h 99% 0.00in /  0mm 264 W/m2
08:39 39.2 °F /  4 °C 39 °F /  3.9 °C 29.85in /  1010.7hPa WSW 4.9mph /  7.9km/h 4.2mph /  6.8km/h 99% 0.00in /  0mm 283 W/m2
08:44 39.9 °F /  4.4 °C 39.6 °F /  4.2 °C 29.85in /  1010.7hPa WSW 4.8mph /  7.7km/h 6mph /  9.7km/h 99% 0.00in /  0mm 295 W/m2
08:49 40.7 °F /  4.8 °C 40.4 °F /  4.7 °C 29.84in /  1010.4hPa West 4.5mph /  7.2km/h 6mph /  9.7km/h 99% 0.00in /  0mm 319 W/m2
08:54 41.4 °F /  5.2 °C 41.2 °F /  5.1 °C 29.84in /  1010.4hPa West 4.2mph /  6.8km/h 5mph /  8km/h 99% 0.00in /  0mm 344 W/m2
08:59 42.3 °F /  5.7 °C 42 °F /  5.6 °C 29.84in /  1010.4hPa West 4.3mph /  6.9km/h 5mph /  8km/h 99% 0.00in /  0mm 375 W/m2
09:04 43.3 °F /  6.3 °C 42.7 °F /  5.9 °C 29.84in /  1010.4hPa West 4.4mph /  7.1km/h 5mph /  8km/h 97.5% 0.00in /  0mm 374 W/m2
09:09 43.6 °F /  6.4 °C 42.3 °F /  5.7 °C 29.84in /  1010.4hPa West 3.8mph /  6.1km/h 5mph /  8km/h 95.1% 0.00in /  0mm 276 W/m2
09:14 44 °F /  6.7 °C 42.4 °F /  5.8 °C 29.84in /  1010.4hPa West 4.2mph /  6.8km/h 5mph /  8km/h 94.5% 0.00in /  0mm 260 W/m2
09:19 44.1 °F /  6.7 °C 42.3 °F /  5.7 °C 29.84in /  1010.4hPa WSW 4.2mph /  6.8km/h 5mph /  8km/h 93.3% 0.00in /  0mm 242 W/m2
09:24 44.5 °F /  6.9 °C 42.7 °F /  5.9 °C 29.84in /  1010.4hPa WSW 4.6mph /  7.4km/h 5mph /  8km/h 93.4% 0.00in /  0mm 273 W/m2
09:29 44.9 °F /  7.2 °C 43.2 °F /  6.2 °C 29.84in /  1010.4hPa WSW 3.3mph /  5.3km/h 6mph /  9.7km/h 94% 0.00in /  0mm 251 W/m2
09:34 45.1 °F /  7.3 °C 43.2 °F /  6.2 °C 29.84in /  1010.4hPa West 3.8mph /  6.1km/h 3mph /  4.8km/h 93.1% 0.00in /  0mm 212 W/m2
09:39 45.1 °F /  7.3 °C 43.2 °F /  6.2 °C 29.83in /  1010hPa West 3mph /  4.8km/h 5mph /  8km/h 93% 0.00in /  0mm 212 W/m2
09:44 45.3 °F /  7.4 °C 43.4 °F /  6.3 °C 29.83in /  1010hPa West 2.8mph /  4.5km/h 3.1mph /  5km/h 93% 0.00in /  0mm 175 W/m2
09:49 45.5 °F /  7.5 °C 43.6 °F /  6.4 °C 29.83in /  1010hPa West 4.4mph /  7.1km/h 5mph /  8km/h 93% 0.00in /  0mm 177 W/m2
09:54 45.5 °F /  7.5 °C 43.6 °F /  6.4 °C 29.84in /  1010.4hPa West 4.5mph /  7.2km/h 5mph /  8km/h 93% 0.00in /  0mm 185 W/m2
09:59 45.7 °F /  7.6 °C 43.8 °F /  6.6 °C 29.83in /  1010hPa West 3.3mph /  5.3km/h 5mph /  8km/h 93% 0.00in /  0mm 182 W/m2
10:04 45.8 °F /  7.7 °C 43.9 °F /  6.6 °C 29.83in /  1010hPa West 4.5mph /  7.2km/h 5mph /  8km/h 93% 0.00in /  0mm 171 W/m2
10:09 46 °F /  7.8 °C 43.9 °F /  6.6 °C 29.84in /  1010.4hPa West 4.5mph /  7.2km/h 5mph /  8km/h 92.3% 0.00in /  0mm 192 W/m2
10:14 46.1 °F /  7.8 °C 43.6 °F /  6.4 °C 29.83in /  1010hPa West 4.5mph /  7.2km/h 5mph /  8km/h 91% 0.00in /  0mm 227 W/m2
10:19 46.4 °F /  8 °C 43.8 °F /  6.6 °C 29.83in /  1010hPa NW 2.4mph /  3.9km/h 5mph /  8km/h 90.6% 0.00in /  0mm 272 W/m2
10:24 46.9 °F /  8.3 °C 44.1 °F /  6.7 °C 29.83in /  1010hPa WNW 3.5mph /  5.6km/h 3.8mph /  6.1km/h 90.2% 0.00in /  0mm 369 W/m2
10:29 47.6 °F /  8.7 °C 44.7 °F /  7.1 °C 29.82in /  1009.7hPa WNW 3.8mph /  6.1km/h 6mph /  9.7km/h 89.7% 0.00in /  0mm 633 W/m2
10:34 48.4 °F /  9.1 °C 44.9 °F /  7.2 °C 29.82in /  1009.7hPa West 1.9mph /  3.1km/h 4mph /  6.4km/h 87.8% 0.00in /  0mm 306 W/m2
10:39 48.7 °F /  9.3 °C 45.1 °F /  7.3 °C 29.82in /  1009.7hPa WNW 1.3mph /  2.1km/h 2mph /  3.2km/h 87.4% 0.00in /  0mm 272 W/m2
10:44 49.1 °F /  9.5 °C 45.2 °F /  7.3 °C 29.82in /  1009.7hPa WNW 3.1mph /  5km/h 3mph /  4.8km/h 86.4% 0.00in /  0mm 321 W/m2
10:49 49.7 °F /  9.8 °C 46.3 °F /  7.9 °C 29.81in /  1009.4hPa NNW 1.8mph /  2.9km/h 3mph /  4.8km/h 88% 0.00in /  0mm 514 W/m2
10:54 50.5 °F /  10.3 °C 46 °F /  7.8 °C 29.81in /  1009.4hPa NE 3.2mph /  5.1km/h 3mph /  4.8km/h 84.4% 0.00in /  0mm 514 W/m2
10:59 50.9 °F /  10.5 °C 45.9 °F /  7.7 °C 29.80in /  1009hPa South 4.1mph /  6.6km/h 4mph /  6.4km/h 83% 0.00in /  0mm 360 W/m2
11:04 51.3 °F /  10.7 °C 45.5 °F /  7.5 °C 29.80in /  1009hPa SSE 6mph /  9.7km/h 6mph /  9.7km/h 80.8% 0.00in /  0mm 281 W/m2
11:09 51.4 °F /  10.8 °C 45.3 °F /  7.4 °C 29.80in /  1009hPa SE 6.5mph /  10.5km/h 7mph /  11.3km/h 79.4% 0.00in /  0mm 226 W/m2
11:14 51.4 °F /  10.8 °C 45.1 °F /  7.3 °C 29.79in /  1008.7hPa SE 6.7mph /  10.8km/h 8mph /  12.9km/h 78.9% 0.00in /  0mm 199 W/m2
11:19 51.5 °F /  10.8 °C 44.9 °F /  7.2 °C 29.79in /  1008.7hPa SE 6.7mph /  10.8km/h 9mph /  14.5km/h 78.2% 0.00in /  0mm 165 W/m2
11:24 51.5 °F /  10.8 °C 44.3 °F /  6.8 °C 29.79in /  1008.7hPa ESE 8.6mph /  13.8km/h 8.3mph /  13.4km/h 76.4% 0.00in /  0mm 146 W/m2
11:29 51.4 °F /  10.8 °C 43.5 °F /  6.4 °C 29.79in /  1008.7hPa SE 8.9mph /  14.3km/h 11mph /  17.7km/h 74.4% 0.00in /  0mm 159 W/m2
11:34 51.4 °F /  10.8 °C 44.1 °F /  6.7 °C 29.79in /  1008.7hPa SE 10.1mph /  16.3km/h 12mph /  19.3km/h 75.7% 0.00in /  0mm 162 W/m2
11:39 51.4 °F /  10.8 °C 44.1 °F /  6.7 °C 29.78in /  1008.4hPa SE 7.8mph /  12.6km/h 12mph /  19.3km/h 75.9% 0.00in /  0mm 153 W/m2
11:44 51.4 °F /  10.8 °C 44.5 °F /  6.9 °C 29.78in /  1008.4hPa SE 6.4mph /  10.3km/h 10mph /  16.1km/h 77% 0.00in /  0mm 169 W/m2
11:49 51.4 °F /  10.8 °C 44.2 °F /  6.8 °C 29.78in /  1008.4hPa SE 6.7mph /  10.8km/h 8mph /  12.9km/h 76.2% 0.00in /  0mm 176 W/m2
11:54 51.5 °F /  10.8 °C 44.2 °F /  6.8 °C 29.78in /  1008.4hPa ESE 6.5mph /  10.5km/h 8mph /  12.9km/h 75.9% 0.00in /  0mm 249 W/m2
11:59 51.8 °F /  11 °C 44.7 °F /  7.1 °C 29.78in /  1008.4hPa ESE 5.6mph /  9km/h 7mph /  11.3km/h 76.8% 0.00in /  0mm 249 W/m2
12:04 52 °F /  11.1 °C 44.1 °F /  6.7 °C 29.77in /  1008hPa ESE 6.5mph /  10.5km/h 8mph /  12.9km/h 74.6% 0.00in /  0mm 260 W/m2
12:09 52.1 °F /  11.2 °C 44.5 °F /  6.9 °C 29.77in /  1008hPa ESE 5.9mph /  9.5km/h 7mph /  11.3km/h 75.3% 0.00in /  0mm 254 W/m2
12:14 52.2 °F /  11.2 °C 44.4 °F /  6.9 °C 29.77in /  1008hPa ESE 6.8mph /  10.9km/h 8mph /  12.9km/h 74.6% 0.00in /  0mm 191 W/m2
12:19 52.3 °F /  11.3 °C 44.9 °F /  7.2 °C 29.77in /  1008hPa East 6.4mph /  10.3km/h 8mph /  12.9km/h 75.9% 0.00in /  0mm 93 W/m2
12:24 51.7 °F /  10.9 °C 45.6 °F /  7.6 °C 29.77in /  1008hPa NE 8.3mph /  13.4km/h 9mph /  14.5km/h 79.6% 0.00in /  0mm 99 W/m2
12:29 51.1 °F /  10.6 °C 45.5 °F /  7.5 °C 29.77in /  1008hPa NNE 6.5mph /  10.5km/h 9mph /  14.5km/h 80.9% 0.00in /  0mm 104 W/m2
12:34 50.8 °F /  10.4 °C 45.3 °F /  7.4 °C 29.76in /  1007.7hPa North 7.1mph /  11.4km/h 7mph /  11.3km/h 81.4% 0.00in /  0mm 115 W/m2
12:39 50.5 °F /  10.3 °C 45.6 °F /  7.6 °C 29.76in /  1007.7hPa NNE 7.4mph /  11.9km/h 8mph /  12.9km/h 83% 0.00in /  0mm 115 W/m2
12:44 50.3 °F /  10.2 °C 45.5 °F /  7.5 °C 29.76in /  1007.7hPa North 7.3mph /  11.7km/h 9mph /  14.5km/h 83.7% 0.00in /  0mm 108 W/m2
12:49 50 °F /  10 °C 45.4 °F /  7.4 °C 29.76in /  1007.7hPa North 7.9mph /  12.7km/h 7mph /  11.3km/h 84% 0.00in /  0mm 85 W/m2
12:54 49.7 °F /  9.8 °C 45.1 °F /  7.3 °C 29.76in /  1007.7hPa North 7.4mph /  11.9km/h 9mph /  14.5km/h 84% 0.00in /  0mm 74 W/m2
12:59 49.6 °F /  9.8 °C 45 °F /  7.2 °C 29.76in /  1007.7hPa North 9.4mph /  15.1km/h 9mph /  14.5km/h 84% 0.00in /  0mm 56 W/m2
13:04 49.5 °F /  9.7 °C 45 °F /  7.2 °C 29.76in /  1007.7hPa North 6.6mph /  10.6km/h 10mph /  16.1km/h 84.6% 0.00in /  0mm 56 W/m2
13:09 49.4 °F /  9.7 °C 44.7 °F /  7.1 °C 29.76in /  1007.7hPa North 6.8mph /  10.9km/h 7mph /  11.3km/h 84.1% 0.00in /  0mm 59 W/m2
13:14 49.3 °F /  9.6 °C 44.6 °F /  7 °C 29.76in /  1007.7hPa North 7.5mph /  12.1km/h 8mph /  12.9km/h 84% 0.00in /  0mm 59 W/m2
13:19 49.1 °F /  9.5 °C 44.5 °F /  6.9 °C 29.76in /  1007.7hPa North 7.9mph /  12.7km/h 8mph /  12.9km/h 84% 0.00in /  0mm 50 W/m2
13:24 49.1 °F /  9.5 °C 44.5 °F /  6.9 °C 29.75in /  1007.3hPa NNE 5.7mph /  9.2km/h 8mph /  12.9km/h 84% 0.00in /  0mm 44 W/m2
13:29 49.2 °F /  9.6 °C 44.8 °F /  7.1 °C 29.75in /  1007.3hPa NNE 4.1mph /  6.6km/h 6mph /  9.7km/h 84.6% 0.00in /  0mm 40 W/m2
13:34 49.1 °F /  9.5 °C 44.8 °F /  7.1 °C 29.75in /  1007.3hPa North 3.9mph /  6.3km/h 5mph /  8km/h 85.3% 0.00in /  0mm 30 W/m2
13:39 48.9 °F /  9.4 °C 44.9 °F /  7.2 °C 29.75in /  1007.3hPa North 4.1mph /  6.6km/h 5mph /  8km/h 86% 0.00in /  0mm 32 W/m2
13:44 48.8 °F /  9.3 °C 44.8 °F /  7.1 °C 29.75in /  1007.3hPa North 5mph /  8km/h 5mph /  8km/h 86% 0.01in /  0.25mm 35 W/m2
13:49 48.7 °F /  9.3 °C 45.1 °F /  7.3 °C 29.76in /  1007.7hPa North 4.1mph /  6.6km/h 6mph /  9.7km/h 87.4% 0.01in /  0.25mm 35 W/m2
13:54 48.7 °F /  9.3 °C 45.3 °F /  7.4 °C 29.76in /  1007.7hPa North 3.9mph /  6.3km/h 5mph /  8km/h 88.3% 0.01in /  0.25mm 34 W/m2
13:59 48.6 °F /  9.2 °C 45.5 °F /  7.5 °C 29.75in /  1007.3hPa North 3.4mph /  5.5km/h 5mph /  8km/h 89% 0.01in /  0.25mm 34 W/m2
14:04 48.4 °F /  9.1 °C 45.5 °F /  7.5 °C 29.75in /  1007.3hPa North 5mph /  8km/h 4mph /  6.4km/h 89.7% 0.01in /  0.25mm 31 W/m2
14:09 48.2 °F /  9 °C 45.2 °F /  7.3 °C 29.75in /  1007.3hPa North 3.4mph /  5.5km/h 6mph /  9.7km/h 89.6% 0.02in /  0.51mm 31 W/m2
14:14 48 °F /  8.9 °C 45.2 °F /  7.3 °C 29.75in /  1007.3hPa North 3.6mph /  5.8km/h 5mph /  8km/h 89.9% 0.02in /  0.51mm 31 W/m2
14:19 47.9 °F /  8.8 °C 45.1 °F /  7.3 °C 29.75in /  1007.3hPa North 3.1mph /  5km/h 5mph /  8km/h 90.2% 0.02in /  0.51mm 29 W/m2
14:24 47.8 °F /  8.8 °C 45.6 °F /  7.6 °C 29.75in /  1007.3hPa North 2.1mph /  3.4km/h 3mph /  4.8km/h 92.2% 0.02in /  0.51mm 29 W/m2
14:29 47.7 °F /  8.7 °C 45.8 °F /  7.7 °C 29.75in /  1007.3hPa North 2.1mph /  3.4km/h 2mph /  3.2km/h 93.2% 0.02in /  0.51mm 29 W/m2
14:34 47.7 °F /  8.7 °C 46.1 °F /  7.8 °C 29.75in /  1007.3hPa North 3mph /  4.8km/h 2mph /  3.2km/h 94.4% 0.02in /  0.51mm 28 W/m2
14:39 47.5 °F /  8.6 °C 46.1 °F /  7.8 °C 29.75in /  1007.3hPa NNW 2.3mph /  3.7km/h 3mph /  4.8km/h 95% 0.02in /  0.51mm 21 W/m2
14:44 47.2 °F /  8.4 °C 45.8 °F /  7.7 °C 29.75in /  1007.3hPa NNW 2.8mph /  4.5km/h 2.2mph /  3.5km/h 95% 0.02in /  0.51mm 19 W/m2
14:49 47.1 °F /  8.4 °C 46 °F /  7.8 °C 29.75in /  1007.3hPa ESE 1.7mph /  2.7km/h 3mph /  4.8km/h 95.9% 0.02in /  0.51mm 17 W/m2
14:54 46.9 °F /  8.3 °C 46.1 °F /  7.8 °C 29.75in /  1007.3hPa NNE 2.6mph /  4.2km/h 3mph /  4.8km/h 96.8% 0.02in /  0.51mm 15 W/m2
14:59 46.8 °F /  8.2 °C 46 °F /  7.8 °C 29.75in /  1007.3hPa North 3.7mph /  6km/h 4mph /  6.4km/h 96.9% 0.02in /  0.51mm 15 W/m2
15:04 46.7 °F /  8.2 °C 45.6 °F /  7.6 °C 29.75in /  1007.3hPa NNE 4.5mph /  7.2km/h 5mph /  8km/h 96% 0.03in /  0.76mm 12 W/m2
15:09 46.5 °F /  8.1 °C 45.4 °F /  7.4 °C 29.75in /  1007.3hPa NE 6.5mph /  10.5km/h 6mph /  9.7km/h 96% 0.03in /  0.76mm 14 W/m2
15:14 46.4 °F /  8 °C 45.4 °F /  7.4 °C 29.75in /  1007.3hPa NNE 5.1mph /  8.2km/h 7mph /  11.3km/h 96.4% 0.03in /  0.76mm 17 W/m2
15:19 46.2 °F /  7.9 °C 45.1 °F /  7.3 °C 29.75in /  1007.3hPa NNE 3.9mph /  6.3km/h 6mph /  9.7km/h 96% 0.03in /  0.76mm 15 W/m2
15:24 46.1 °F /  7.8 °C 45.3 °F /  7.4 °C 29.75in /  1007.3hPa NNE 5.6mph /  9km/h 7mph /  11.3km/h 96.7% 0.03in /  0.76mm 10 W/m2
15:29 46.1 °F /  7.8 °C 45.3 °F /  7.4 °C 29.75in /  1007.3hPa NNE 4.7mph /  7.6km/h 7mph /  11.3km/h 97.2% 0.03in /  0.76mm 6 W/m2
15:34 46 °F /  7.8 °C 45.5 °F /  7.5 °C 29.75in /  1007.3hPa NNE 3.2mph /  5.1km/h 6mph /  9.7km/h 98% 0.03in /  0.76mm 3 W/m2
15:39 46 °F /  7.8 °C 45.6 °F /  7.6 °C 29.75in /  1007.3hPa NNE 3.4mph /  5.5km/h 5mph /  8km/h 98.2% 0.03in /  0.76mm 2 W/m2
15:44 45.9 °F /  7.7 °C 45.6 °F /  7.6 °C 29.75in /  1007.3hPa North 2.2mph /  3.5km/h 5mph /  8km/h 99% 0.02in /  0.51mm 2 W/m2
15:49 45.8 °F /  7.7 °C 45.5 °F /  7.5 °C 29.75in /  1007.3hPa NNW 2.2mph /  3.5km/h 2mph /  3.2km/h 99% 0.02in /  0.51mm 2 W/m2
15:54 45.5 °F /  7.5 °C 45.2 °F /  7.3 °C 29.74in /  1007hPa SE 2.9mph /  4.7km/h 3.4mph /  5.5km/h 99% 0.02in /  0.51mm 1 W/m2
15:59 45.4 °F /  7.4 °C 45.1 °F /  7.3 °C 29.74in /  1007hPa ENE 3.3mph /  5.3km/h 4mph /  6.4km/h 99% 0.01in /  0.25mm 0 W/m2
16:04 45.3 °F /  7.4 °C 45.1 °F /  7.3 °C 29.74in /  1007hPa NNE 5.6mph /  9km/h 5mph /  8km/h 99% 0.01in /  0.25mm 0 W/m2
16:09 45.1 °F /  7.3 °C 44.9 °F /  7.2 °C 29.74in /  1007hPa North 5.4mph /  8.7km/h 7mph /  11.3km/h 99% 0.00in /  0mm 0 W/m2
16:14 45.1 °F /  7.3 °C 44.9 °F /  7.2 °C 29.74in /  1007hPa North 4.4mph /  7.1km/h 6mph /  9.7km/h 99% 0.00in /  0mm 0 W/m2
16:19 45.1 °F /  7.3 °C 44.9 °F /  7.2 °C 29.74in /  1007hPa North 3.9mph /  6.3km/h 6mph /  9.7km/h 99% 0.00in /  0mm 0 W/m2
16:24 45.1 °F /  7.3 °C 44.9 °F /  7.2 °C 29.74in /  1007hPa North 4.7mph /  7.6km/h 5mph /  8km/h 99% 0.00in /  0mm 0 W/m2
16:29 45.1 °F /  7.3 °C 44.9 °F /  7.2 °C 29.73in /  1006.7hPa North 5.3mph /  8.5km/h 6mph /  9.7km/h 99% 0.00in /  0mm 0 W/m2
16:34 45 °F /  7.2 °C 44.7 °F /  7.1 °C 29.73in /  1006.7hPa North 6.4mph /  10.3km/h 6mph /  9.7km/h 99% 0.00in /  0mm 0 W/m2
16:39 45 °F /  7.2 °C 44.7 °F /  7.1 °C 29.73in /  1006.7hPa North 8mph /  12.9km/h 9mph /  14.5km/h 99% 0.00in /  0mm 0 W/m2
16:44 44.8 °F /  7.1 °C 44.5 °F /  6.9 °C 29.73in /  1006.7hPa North 7.8mph /  12.6km/h 10mph /  16.1km/h 99% 0.00in /  0mm 0 W/m2
16:49 44.8 °F /  7.1 °C 44.5 °F /  6.9 °C 29.73in /  1006.7hPa North 7.3mph /  11.7km/h 8mph /  12.9km/h 99% 0.00in /  0mm 0 W/m2
16:54 44.8 °F /  7.1 °C 44.5 °F /  6.9 °C 29.73in /  1006.7hPa North 7.8mph /  12.6km/h 8mph /  12.9km/h 99% 0.00in /  0mm 0 W/m2
16:59 44.6 °F /  7 °C 44.3 °F /  6.8 °C 29.73in /  1006.7hPa North 5.7mph /  9.2km/h 9mph /  14.5km/h 99% 0.00in /  0mm 0 W/m2
17:04 44.6 °F /  7 °C 44.3 °F /  6.8 °C 29.72in /  1006.3hPa North 5.3mph /  8.5km/h 7mph /  11.3km/h 99% 0.00in /  0mm 0 W/m2
17:09 44.6 °F /  7 °C 44.3 °F /  6.8 °C 29.72in /  1006.3hPa North 3.7mph /  6km/h 6mph /  9.7km/h 99% 0.00in /  0mm 0 W/m2
17:14 44.6 °F /  7 °C 44.3 °F /  6.8 °C 29.72in /  1006.3hPa North 3.9mph /  6.3km/h 6mph /  9.7km/h 99% 0.00in /  0mm 0 W/m2
17:19 44.6 °F /  7 °C 44.3 °F /  6.8 °C 29.72in /  1006.3hPa North 4.8mph /  7.7km/h 6mph /  9.7km/h 99% 0.00in /  0mm 0 W/m2
17:24 44.6 °F /  7 °C 44.3 °F /  6.8 °C 29.72in /  1006.3hPa NNW 2.6mph /  4.2km/h 6mph /  9.7km/h 99% 0.00in /  0mm 0 W/m2
17:29 44.6 °F /  7 °C 44.3 °F /  6.8 °C 29.71in /  1006hPa NNW 3.7mph /  6km/h 3.1mph /  5km/h 99% 0.00in /  0mm 0 W/m2
17:34 44.6 °F /  7 °C 44.3 °F /  6.8 °C 29.71in /  1006hPa NNW 6mph /  9.7km/h 8mph /  12.9km/h 99% 0.00in /  0mm 0 W/m2
17:39 44.6 °F /  7 °C 44.3 °F /  6.8 °C 29.72in /  1006.3hPa North 6.5mph /  10.5km/h 8mph /  12.9km/h 99% 0.00in /  0mm 0 W/m2
17:44 44.6 °F /  7 °C 44.3 °F /  6.8 °C 29.72in /  1006.3hPa North 4.2mph /  6.8km/h 8mph /  12.9km/h 99% 0.00in /  0mm 0 W/m2
17:49 44.6 °F /  7 °C 44.3 °F /  6.8 °C 29.71in /  1006hPa NNW 6.1mph /  9.8km/h 7mph /  11.3km/h 99% 0.00in /  0mm 0 W/m2
17:54 44.7 °F /  7.1 °C 44.4 °F /  6.9 °C 29.71in /  1006hPa North 4.2mph /  6.8km/h 8mph /  12.9km/h 99% 0.00in /  0mm 0 W/m2
17:59 44.8 °F /  7.1 °C 44.5 °F /  6.9 °C 29.70in /  1005.6hPa North 5.1mph /  8.2km/h 9mph /  14.5km/h 99% 0.00in /  0mm 0 W/m2
18:04 44.8 °F /  7.1 °C 44.5 °F /  6.9 °C 29.71in /  1006hPa North 6.6mph /  10.6km/h 5mph /  8km/h 99% 0.00in /  0mm 0 W/m2
18:09 44.8 °F /  7.1 °C 44.5 °F /  6.9 °C 29.71in /  1006hPa NNW 7mph /  11.3km/h 8mph /  12.9km/h 99% 0.00in /  0mm 0 W/m2
18:14 44.8 °F /  7.1 °C 44.5 °F /  6.9 °C 29.71in /  1006hPa North 4.8mph /  7.7km/h 8mph /  12.9km/h 99% 0.00in /  0mm 0 W/m2
18:19 44.9 °F /  7.2 °C 44.6 °F /  7 °C 29.70in /  1005.6hPa North 5mph /  8km/h 7mph /  11.3km/h 99% 0.00in /  0mm 0 W/m2
18:24 44.8 °F /  7.1 °C 44.5 °F /  6.9 °C 29.70in /  1005.6hPa NNE 5mph /  8km/h 6mph /  9.7km/h 99% 0.00in /  0mm 0 W/m2
18:29 44.8 °F /  7.1 °C 44.5 °F /  6.9 °C 29.70in /  1005.6hPa NNE 9mph /  14.5km/h 7.8mph /  12.6km/h 99% 0.00in /  0mm 0 W/m2
18:34 44.8 °F /  7.1 °C 44.5 °F /  6.9 °C 29.70in /  1005.6hPa North 5.7mph /  9.2km/h 13mph /  20.9km/h 99% 0.00in /  0mm 0 W/m2
18:39 44.7 °F /  7.1 °C 44.4 °F /  6.9 °C 29.70in /  1005.6hPa NW 2.7mph /  4.3km/h 6mph /  9.7km/h 99% 0.00in /  0mm 0 W/m2
18:44 44.5 °F /  6.9 °C 44.3 °F /  6.8 °C 29.70in /  1005.6hPa SW 3.7mph /  6km/h 3.4mph /  5.5km/h 99% 0.00in /  0mm 0 W/m2
18:49 44.4 °F /  6.9 °C 44.2 °F /  6.8 °C 29.70in /  1005.6hPa NNW 3.3mph /  5.3km/h 6mph /  9.7km/h 99% 0.00in /  0mm 0 W/m2
18:54 44.4 °F /  6.9 °C 44.2 °F /  6.8 °C 29.70in /  1005.6hPa North 4.2mph /  6.8km/h 4mph /  6.4km/h 99% 0.00in /  0mm 0 W/m2
18:59 44.3 °F /  6.8 °C 44.1 °F /  6.7 °C 29.70in /  1005.6hPa ESE 3.5mph /  5.6km/h 5mph /  8km/h 99% 0.00in /  0mm 0 W/m2
19:01 44.2 °F /  6.8 °C 44 °F /  6.7 °C 29.70in /  1005.6hPa SE 2.6mph /  4.2km/h 4mph /  6.4km/h 99% 0.00in /  0mm 0 W/m2
19:10 44.2 °F /  6.8 °C 44 °F /  6.7 °C 29.70in /  1005.6hPa North 2mph /  3.2km/h 4mph /  6.4km/h 99% 0.00in /  0mm 0 W/m2
19:25 44.2 °F /  6.8 °C 44 °F /  6.7 °C 29.70in /  1005.6hPa West 2mph /  3.2km/h 3mph /  4.8km/h 99% 0.00in /  0mm 0 W/m2
19:30 44.2 °F /  6.8 °C 44 °F /  6.7 °C 29.70in /  1005.6hPa NNE 1mph /  1.6km/h 3mph /  4.8km/h 99% 0.00in /  0mm 0 W/m2
19:35 44.4 °F /  6.9 °C 44.2 °F /  6.8 °C 29.70in /  1005.6hPa NNE 2mph /  3.2km/h 4mph /  6.4km/h 99% 0.00in /  0mm 0 W/m2
19:40 44.4 °F /  6.9 °C 44.2 °F /  6.8 °C 29.70in /  1005.6hPa North 1mph /  1.6km/h 2mph /  3.2km/h 99% 0.00in /  0mm 0 W/m2
19:49 44.3 °F /  6.8 °C 44.1 °F /  6.7 °C 29.70in /  1005.6hPa SE 2.9mph /  4.7km/h 1.6mph /  2.6km/h 99% 0.00in /  0mm 0 W/m2
19:54 44.2 °F /  6.8 °C 44 °F /  6.7 °C 29.70in /  1005.6hPa SSE 2.1mph /  3.4km/h 4mph /  6.4km/h 99% 0.00in /  0mm 0 W/m2
19:59 44.1 °F /  6.7 °C 43.8 °F /  6.6 °C 29.70in /  1005.6hPa South 2.2mph /  3.5km/h 2.2mph /  3.5km/h 99% 0.00in /  0mm 0 W/m2
20:04 44.1 °F /  6.7 °C 43.8 °F /  6.6 °C 29.69in /  1005.3hPa SSW 2.6mph /  4.2km/h 3mph /  4.8km/h 99% 0.00in /  0mm 0 W/m2
20:09 44.1 °F /  6.7 °C 43.8 °F /  6.6 °C 29.69in /  1005.3hPa SW 1.8mph /  2.9km/h 3mph /  4.8km/h 99% 0.01in /  0.25mm 0 W/m2
20:14 44.1 °F /  6.7 °C 43.8 °F /  6.6 °C 29.70in /  1005.6hPa SW 2.3mph /  3.7km/h 3mph /  4.8km/h 99% 0.01in /  0.25mm 0 W/m2
20:19 44 °F /  6.7 °C 43.7 °F /  6.5 °C 29.69in /  1005.3hPa South 1.4mph /  2.3km/h 3mph /  4.8km/h 99% 0.03in /  0.76mm 0 W/m2
20:24 44.1 °F /  6.7 °C 43.8 °F /  6.6 °C 29.69in /  1005.3hPa SW 3mph /  4.8km/h 2.5mph /  4km/h 99% 0.04in /  1.02mm 0 W/m2
20:29 44.1 °F /  6.7 °C 43.8 °F /  6.6 °C 29.69in /  1005.3hPa West 3.4mph /  5.5km/h 3mph /  4.8km/h 99% 0.04in /  1.02mm 0 W/m2
20:34 44.1 °F /  6.7 °C 43.8 °F /  6.6 °C 29.69in /  1005.3hPa WSW 1mph /  1.6km/h 4mph /  6.4km/h 99% 0.04in /  1.02mm 0 W/m2
20:39 44.1 °F /  6.7 °C 43.8 °F /  6.6 °C 29.68in /  1005hPa WSW 1.6mph /  2.6km/h 2mph /  3.2km/h 99% 0.05in /  1.27mm 0 W/m2
20:44 44.1 °F /  6.7 °C 43.8 °F /  6.6 °C 29.68in /  1005hPa West 0.9mph /  1.4km/h 2mph /  3.2km/h 99% 0.05in /  1.27mm 0 W/m2
20:49 44 °F /  6.7 °C 43.7 °F /  6.5 °C 29.68in /  1005hPa West 1.9mph /  3.1km/h 2mph /  3.2km/h 99% 0.05in /  1.27mm 0 W/m2
20:54 43.9 °F /  6.6 °C 43.6 °F /  6.4 °C 29.68in /  1005hPa WNW 0.4mph /  0.6km/h 2mph /  3.2km/h 99% 0.05in /  1.27mm 0 W/m2
20:59 43.9 °F /  6.6 °C 43.6 °F /  6.4 °C 29.68in /  1005hPa NNW 1mph /  1.6km/h 1mph /  1.6km/h 99% 0.05in /  1.27mm 0 W/m2
21:04 44.1 °F /  6.7 °C 43.8 °F /  6.6 °C 29.68in /  1005hPa NNW 1.5mph /  2.4km/h 2mph /  3.2km/h 99% 0.05in /  1.27mm 0 W/m2
21:09 44.1 °F /  6.7 °C 43.8 °F /  6.6 °C 29.68in /  1005hPa NW 2.4mph /  3.9km/h 3mph /  4.8km/h 99% 0.04in /  1.02mm 0 W/m2
21:14 44 °F /  6.7 °C 43.7 °F /  6.5 °C 29.68in /  1005hPa WNW 1.3mph /  2.1km/h 3mph /  4.8km/h 99% 0.04in /  1.02mm 0 W/m2
21:19 43.9 °F /  6.6 °C 43.6 °F /  6.4 °C 29.68in /  1005hPa NNW 0.3mph /  0.5km/h 2mph /  3.2km/h 99% 0.03in /  0.76mm 0 W/m2
21:24 44 °F /  6.7 °C 43.7 °F /  6.5 °C 29.68in /  1005hPa NNW 0.8mph /  1.3km/h 2mph /  3.2km/h 99% 0.02in /  0.51mm 0 W/m2
21:29 43.9 °F /  6.6 °C 43.6 °F /  6.4 °C 29.68in /  1005hPa NNW 0.8mph /  1.3km/h 2mph /  3.2km/h 99% 0.01in /  0.25mm 0 W/m2
21:34 44 °F /  6.7 °C 43.8 °F /  6.6 °C 29.68in /  1005hPa North 0.4mph /  0.6km/h 2mph /  3.2km/h 99% 0.00in /  0mm 0 W/m2
21:39 44.1 °F /  6.7 °C 43.8 °F /  6.6 °C 29.68in /  1005hPa NNW 2.2mph /  3.5km/h 3mph /  4.8km/h 99% 0.00in /  0mm 0 W/m2
21:44 44.1 °F /  6.7 °C 43.8 °F /  6.6 °C 29.68in /  1005hPa NNW 3.2mph /  5.1km/h 3mph /  4.8km/h 99% 0.00in /  0mm 0 W/m2
21:49 44.1 °F /  6.7 °C 43.8 °F /  6.6 °C 29.68in /  1005hPa NNW 2.2mph /  3.5km/h 3mph /  4.8km/h 99% 0.00in /  0mm 0 W/m2
21:54 44.1 °F /  6.7 °C 43.8 °F /  6.6 °C 29.68in /  1005hPa North 2mph /  3.2km/h 2mph /  3.2km/h 99% 0.00in /  0mm 0 W/m2
21:59 44.1 °F /  6.7 °C 43.8 °F /  6.6 °C 29.68in /  1005hPa NNW 2.6mph /  4.2km/h 2.2mph /  3.5km/h 99% 0.00in /  0mm 0 W/m2
22:04 44.1 °F /  6.7 °C 43.8 °F /  6.6 °C 29.68in /  1005hPa North 1.2mph /  1.9km/h 3mph /  4.8km/h 99% 0.00in /  0mm 0 W/m2
22:09 44.1 °F /  6.7 °C 43.8 °F /  6.6 °C 29.67in /  1004.6hPa NNW 2.5mph /  4km/h 2mph /  3.2km/h 99% 0.00in /  0mm 0 W/m2
22:14 44.1 °F /  6.7 °C 43.8 °F /  6.6 °C 29.67in /  1004.6hPa ENE 2.1mph /  3.4km/h 3mph /  4.8km/h 99% 0.00in /  0mm 0 W/m2
22:19 44.1 °F /  6.7 °C 43.8 °F /  6.6 °C 29.67in /  1004.6hPa ESE 2.5mph /  4km/h 3mph /  4.8km/h 99% 0.00in /  0mm 0 W/m2
22:24 44.1 °F /  6.7 °C 43.8 °F /  6.6 °C 29.67in /  1004.6hPa NNE 1.6mph /  2.6km/h 3mph /  4.8km/h 99% 0.00in /  0mm 0 W/m2
22:29 44.1 °F /  6.7 °C 43.8 °F /  6.6 °C 29.67in /  1004.6hPa North 1.7mph /  2.7km/h 2mph /  3.2km/h 99% 0.00in /  0mm 0 W/m2
22:34 44.1 °F /  6.7 °C 43.8 °F /  6.6 °C 29.67in /  1004.6hPa North 2.3mph /  3.7km/h 3mph /  4.8km/h 99% 0.00in /  0mm 0 W/m2
22:39 44.1 °F /  6.7 °C 43.8 °F /  6.6 °C 29.67in /  1004.6hPa NNE 1.9mph /  3.1km/h 3mph /  4.8km/h 99% 0.00in /  0mm 0 W/m2
22:44 44.1 °F /  6.7 °C 43.8 °F /  6.6 °C 29.67in /  1004.6hPa NNE 2.5mph /  4km/h 2mph /  3.2km/h 99% 0.00in /  0mm 0 W/m2
22:49 44.1 °F /  6.7 °C 43.8 °F /  6.6 °C 29.67in /  1004.6hPa SE 3.1mph /  5km/h 3mph /  4.8km/h 99% 0.00in /  0mm 0 W/m2
22:54 44.1 °F /  6.7 °C 43.8 °F /  6.6 °C 29.67in /  1004.6hPa NE 4.6mph /  7.4km/h 4.2mph /  6.8km/h 99% 0.00in /  0mm 0 W/m2
22:59 44.2 °F /  6.8 °C 43.9 °F /  6.6 °C 29.66in /  1004.3hPa North 5.5mph /  8.9km/h 8mph /  12.9km/h 99% 0.00in /  0mm 0 W/m2
23:04 44.2 °F /  6.8 °C 44 °F /  6.7 °C 29.67in /  1004.6hPa NNW 3.8mph /  6.1km/h 6mph /  9.7km/h 99% 0.00in /  0mm 0 W/m2
23:09 44.4 °F /  6.9 °C 44.2 °F /  6.8 °C 29.68in /  1005hPa NNW 4.6mph /  7.4km/h 4mph /  6.4km/h 99% 0.00in /  0mm 0 W/m2
23:14 44.4 °F /  6.9 °C 44.2 °F /  6.8 °C 29.68in /  1005hPa SSE 3.5mph /  5.6km/h 6mph /  9.7km/h 99% 0.00in /  0mm 0 W/m2
23:19 44.4 °F /  6.9 °C 44.2 °F /  6.8 °C 29.68in /  1005hPa NE 4.3mph /  6.9km/h 5mph /  8km/h 99% 0.00in /  0mm 0 W/m2
23:24 44.6 °F /  7 °C 44.3 °F /  6.8 °C 29.68in /  1005hPa North 0.8mph /  1.3km/h 7mph /  11.3km/h 99% 0.00in /  0mm 0 W/m2
23:29 44.6 °F /  7 °C 44.3 °F /  6.8 °C 29.68in /  1005hPa NNE 3mph /  4.8km/h 2.9mph /  4.7km/h 99% 0.00in /  0mm 0 W/m2
23:34 44.6 °F /  7 °C 44.3 °F /  6.8 °C 29.67in /  1004.6hPa NNE 2.7mph /  4.3km/h 4mph /  6.4km/h 99% 0.00in /  0mm 0 W/m2
23:39 44.5 °F /  6.9 °C 44.3 °F /  6.8 °C 29.67in /  1004.6hPa NNE 4.3mph /  6.9km/h 4mph /  6.4km/h 99% 0.00in /  0mm 0 W/m2
23:44 44.5 °F /  6.9 °C 44.2 °F /  6.8 °C 29.67in /  1004.6hPa NNE 2.9mph /  4.7km/h 6mph /  9.7km/h 99% 0.00in /  0mm 0 W/m2
23:49 44.4 °F /  6.9 °C 44.2 °F /  6.8 °C 29.67in /  1004.6hPa NNE 2.3mph /  3.7km/h 3mph /  4.8km/h 99% 0.00in /  0mm 0 W/m2
23:54 44.4 °F /  6.9 °C 44.2 °F /  6.8 °C 29.67in /  1004.6hPa NE 2.5mph /  4km/h 3mph /  4.8km/h 99% 0.00in /  0mm 0 W/m2
23:59 44.4 °F /  6.9 °C 44.2 °F /  6.8 °C 29.67in /  1004.6hPa NNE 2.1mph /  3.4km/h 3mph /  4.8km/h 99% 0.00in /  0mm 0 W/m2
Knjazevac, Serbia
Compliments of Weather Underground - 4 mb